Briefing drone pour Saint-alban-leysse

Rechercher une autre localisation

Conditions de vol :


Nous sommes le : Jeudi 08 décembre 2022
Il est 22:14 UTC (23:14 LT)

Lever de soleil : 06:37 UTC (07:37 LT)
Coucher de soleil : 16:18 UTC (17:18 LT)

Météo

L'essentiel des conditions de vol

VIGILANCE MÉTÉO FRANCE - Savoie (73)
Vigilance Jaune : Avalanches
METAR de LFLB
LFLB 082200Z AUTO 16003KT 6000 -RA BKN056/// OVC070/// ///TCU 03/02 Q1005

Date d'émission: 08/12/2022
Heure d'émission: 22:00 UTC
Vent: 160° pour 3 KT (6 km/h)
Visibilité horizontale: 6000 m
Plafond :
- Nuages morcelés à 5600ft (1707m)
- Couvert à 7000ft (2134m)
Température: 3 °C
Point de rosée: 2 °C
Humidité: 93%
Pression (QNH): 1005 hPa
Conditions: Faible pluie
TAF de LFLB
LFLB 082003Z 0820/0915 CNL

Conditions prévues :

Heure d'émission : Bulletin éffectué le 08 à 20:00 UTC
Prévision : Valide du 08 a 20:00 UTC au 09 a 15:00 UTC
Nuages : à 0ft (0 m)
WEBCAM POUR SAINT-ALBAN-LEYSSE

Réglementation

Voler en sécurité

CARTES AERONAUTIQUE 1/500.000
CARTE AZBA (Reseau basse altitude)
CARTES VAC (LFLB)
SUP AIP




Chargement des AIP...
NOTAM (SAINT-ALBAN-LEYSSE + Terrain à proximité / FIR )




Chargement des NOTAMS...
CONTACT PREFECTURE 73


Avertissement : Les données mises à disposition sont indicatives. Oxygène Drone ne pourra être tenu responsable de dégâts causés aux biens et aux personnes.